sensor_id;sensor_type;location;lat;lon;timestamp;pressure;altitude;pressure_sealevel;temperature;humidity
12991;BME280;6560;57.692;11.958;2022-10-13T00:00:41;101656.91;;;26.11;100.00
12991;BME280;6560;57.692;11.958;2022-10-13T00:03:07;101661.81;;;26.24;100.00
12991;BME280;6560;57.692;11.958;2022-10-13T00:05:33;101669.91;;;25.60;100.00
12991;BME280;6560;57.692;11.958;2022-10-13T00:08:00;101616.09;;;24.79;100.00
12991;BME280;6560;57.692;11.958;2022-10-13T00:10:26;101663.59;;;24.22;100.00
12991;BME280;6560;57.692;11.958;2022-10-13T00:12:52;101671.25;;;22.72;100.00
12991;BME280;6560;57.692;11.958;2022-10-13T00:15:18;101590.00;;;21.53;100.00
12991;BME280;6560;57.692;11.958;2022-10-13T00:17:43;101661.16;;;24.83;100.00
12991;BME280;6560;57.692;11.958;2022-10-13T00:20:10;101655.13;;;24.90;100.00
12991;BME280;6560;57.692;11.958;2022-10-13T00:22:35;101628.75;;;24.53;100.00
12991;BME280;6560;57.692;11.958;2022-10-13T00:25:02;101649.13;;;25.90;100.00
12991;BME280;6560;57.692;11.958;2022-10-13T00:27:28;101640.31;;;27.88;100.00
12991;BME280;6560;57.692;11.958;2022-10-13T00:29:53;101663.00;;;23.56;100.00
12991;BME280;6560;57.692;11.958;2022-10-13T00:32:19;101658.97;;;22.56;100.00
12991;BME280;6560;57.692;11.958;2022-10-13T00:34:44;101607.81;;;24.73;100.00
12991;BME280;6560;57.692;11.958;2022-10-13T00:37:09;101643.44;;;25.50;100.00
12991;BME280;6560;57.692;11.958;2022-10-13T00:39:35;101634.16;;;25.70;100.00
12991;BME280;6560;57.692;11.958;2022-10-13T00:42:01;101650.97;;;23.24;100.00
12991;BME280;6560;57.692;11.958;2022-10-13T00:47:32;101631.34;;;25.67;100.00
12991;BME280;6560;57.692;11.958;2022-10-13T00:49:59;101482.75;;;23.12;100.00
12991;BME280;6560;57.692;11.958;2022-10-13T00:52:25;101643.53;;;22.73;100.00
12991;BME280;6560;57.692;11.958;2022-10-13T00:54:54;101601.72;;;24.80;100.00
12991;BME280;6560;57.692;11.958;2022-10-13T00:57:20;101604.03;;;25.56;100.00
12991;BME280;6560;57.692;11.958;2022-10-13T00:59:46;101632.28;;;23.75;100.00
12991;BME280;6560;57.692;11.958;2022-10-13T01:02:12;101455.97;;;24.47;100.00
12991;BME280;6560;57.692;11.958;2022-10-13T01:04:44;101631.69;;;22.47;100.00
12991;BME280;6560;57.692;11.958;2022-10-13T01:07:11;101611.09;;;24.91;100.00
12991;BME280;6560;57.692;11.958;2022-10-13T01:09:37;101511.19;;;24.05;100.00
12991;BME280;6560;57.692;11.958;2022-10-13T01:15:12;101610.22;;;25.84;100.00
12991;BME280;6560;57.692;11.958;2022-10-13T01:20:57;101606.63;;;26.19;100.00
12991;BME280;6560;57.692;11.958;2022-10-13T01:31:48;101507.50;;;23.49;100.00
12991;BME280;6560;57.692;11.958;2022-10-13T01:34:24;101589.72;;;22.28;100.00
12991;BME280;6560;57.692;11.958;2022-10-13T01:39:51;101607.25;;;22.41;100.00
12991;BME280;6560;57.692;11.958;2022-10-13T01:42:26;101504.56;;;22.27;100.00
12991;BME280;6560;57.692;11.958;2022-10-13T01:44:59;101502.41;;;23.09;100.00
12991;BME280;6560;57.692;11.958;2022-10-13T01:47:26;101511.25;;;25.23;100.00
12991;BME280;6560;57.692;11.958;2022-10-13T01:49:53;101532.53;;;25.75;100.00
12991;BME280;6560;57.692;11.958;2022-10-13T01:52:23;101550.72;;;26.16;100.00
12991;BME280;6560;57.692;11.958;2022-10-13T01:54:51;101548.28;;;26.27;100.00
12991;BME280;6560;57.692;11.958;2022-10-13T01:57:30;101538.31;;;28.47;100.00
12991;BME280;6560;57.692;11.958;2022-10-13T02:00:03;101545.78;;;26.35;100.00
12991;BME280;6560;57.692;11.958;2022-10-13T02:08:23;101544.31;;;25.77;100.00
12991;BME280;6560;57.692;11.958;2022-10-13T02:13:40;101381.22;;;24.73;100.00
12991;BME280;6560;57.692;11.958;2022-10-13T02:16:07;101510.06;;;25.12;100.00
12991;BME280;6560;57.692;11.958;2022-10-13T02:18:34;101507.66;;;25.88;100.00
12991;BME280;6560;57.692;11.958;2022-10-13T02:21:02;101530.38;;;25.96;100.00
12991;BME280;6560;57.692;11.958;2022-10-13T02:23:28;101520.63;;;25.35;100.00
12991;BME280;6560;57.692;11.958;2022-10-13T02:25:55;101516.78;;;24.96;100.00
12991;BME280;6560;57.692;11.958;2022-10-13T02:28:21;101486.72;;;26.15;100.00
12991;BME280;6560;57.692;11.958;2022-10-13T02:30:48;101529.38;;;24.39;100.00
12991;BME280;6560;57.692;11.958;2022-10-13T02:33:13;101530.63;;;25.08;100.00
12991;BME280;6560;57.692;11.958;2022-10-13T02:35:39;101536.78;;;23.16;100.00
12991;BME280;6560;57.692;11.958;2022-10-13T02:38:05;101539.56;;;23.19;100.00
12991;BME280;6560;57.692;11.958;2022-10-13T02:40:31;101505.91;;;26.25;100.00
12991;BME280;6560;57.692;11.958;2022-10-13T02:42:56;101514.00;;;26.64;100.00
12991;BME280;6560;57.692;11.958;2022-10-13T02:45:22;101527.50;;;23.82;100.00
12991;BME280;6560;57.692;11.958;2022-10-13T02:47:48;101518.66;;;25.61;100.00
12991;BME280;6560;57.692;11.958;2022-10-13T02:50:13;101510.81;;;26.06;100.00
12991;BME280;6560;57.692;11.958;2022-10-13T02:52:39;101480.59;;;28.01;100.00
12991;BME280;6560;57.692;11.958;2022-10-13T02:55:05;101440.94;;;25.51;100.00
12991;BME280;6560;57.692;11.958;2022-10-13T02:57:30;101493.16;;;27.96;100.00
12991;BME280;6560;57.692;11.958;2022-10-13T02:59:56;101517.78;;;26.33;100.00
12991;BME280;6560;57.692;11.958;2022-10-13T03:02:21;101489.47;;;24.85;100.00
12991;BME280;6560;57.692;11.958;2022-10-13T03:04:48;101491.00;;;26.43;100.00
12991;BME280;6560;57.692;11.958;2022-10-13T03:07:14;101509.47;;;27.03;100.00
12991;BME280;6560;57.692;11.958;2022-10-13T03:09:40;101467.50;;;25.67;100.00
12991;BME280;6560;57.692;11.958;2022-10-13T03:12:05;101490.66;;;27.09;100.00
12991;BME280;6560;57.692;11.958;2022-10-13T03:14:31;101460.84;;;26.27;100.00
12991;BME280;6560;57.692;11.958;2022-10-13T03:16:56;101488.66;;;26.60;100.00
12991;BME280;6560;57.692;11.958;2022-10-13T03:19:22;101497.00;;;25.27;100.00
12991;BME280;6560;57.692;11.958;2022-10-13T03:21:47;101402.53;;;24.95;100.00
12991;BME280;6560;57.692;11.958;2022-10-13T03:24:13;101489.44;;;25.47;100.00
12991;BME280;6560;57.692;11.958;2022-10-13T03:26:44;101444.13;;;26.86;100.00
12991;BME280;6560;57.692;11.958;2022-10-13T03:29:14;101392.63;;;26.38;100.00
12991;BME280;6560;57.692;11.958;2022-10-13T03:31:40;101459.66;;;27.91;100.00
12991;BME280;6560;57.692;11.958;2022-10-13T03:34:07;101474.69;;;24.16;100.00
12991;BME280;6560;57.692;11.958;2022-10-13T03:36:33;101436.69;;;24.34;100.00
12991;BME280;6560;57.692;11.958;2022-10-13T03:38:58;101467.09;;;26.63;100.00
12991;BME280;6560;57.692;11.958;2022-10-13T03:41:24;101438.31;;;26.26;100.00
12991;BME280;6560;57.692;11.958;2022-10-13T03:43:49;101435.38;;;23.40;100.00
12991;BME280;6560;57.692;11.958;2022-10-13T03:46:16;101443.91;;;25.60;100.00
12991;BME280;6560;57.692;11.958;2022-10-13T03:48:42;101468.66;;;23.44;100.00
12991;BME280;6560;57.692;11.958;2022-10-13T03:51:11;101444.19;;;26.47;100.00
12991;BME280;6560;57.692;11.958;2022-10-13T03:53:37;101409.81;;;26.85;100.00
12991;BME280;6560;57.692;11.958;2022-10-13T03:56:03;101448.59;;;27.28;100.00
12991;BME280;6560;57.692;11.958;2022-10-13T03:58:30;101437.34;;;27.07;100.00
12991;BME280;6560;57.692;11.958;2022-10-13T04:00:57;101442.44;;;24.46;100.00
12991;BME280;6560;57.692;11.958;2022-10-13T04:03:26;101397.19;;;24.66;100.00
12991;BME280;6560;57.692;11.958;2022-10-13T04:05:51;101415.50;;;24.77;100.00
12991;BME280;6560;57.692;11.958;2022-10-13T04:08:17;101345.22;;;24.40;100.00
12991;BME280;6560;57.692;11.958;2022-10-13T04:10:43;101428.44;;;25.22;100.00
12991;BME280;6560;57.692;11.958;2022-10-13T04:13:08;101424.25;;;26.03;100.00
12991;BME280;6560;57.692;11.958;2022-10-13T04:15:38;101422.41;;;26.40;100.00
12991;BME280;6560;57.692;11.958;2022-10-13T04:18:05;101363.41;;;26.22;100.00
12991;BME280;6560;57.692;11.958;2022-10-13T04:20:38;101362.19;;;25.34;100.00
12991;BME280;6560;57.692;11.958;2022-10-13T04:23:04;101412.25;;;25.22;100.00
12991;BME280;6560;57.692;11.958;2022-10-13T04:25:30;101361.53;;;26.19;100.00
12991;BME280;6560;57.692;11.958;2022-10-13T04:27:58;101406.59;;;25.11;100.00
12991;BME280;6560;57.692;11.958;2022-10-13T04:30:23;101360.59;;;25.07;100.00
12991;BME280;6560;57.692;11.958;2022-10-13T04:32:49;101390.13;;;25.00;100.00
12991;BME280;6560;57.692;11.958;2022-10-13T04:35:14;101393.53;;;22.74;100.00
12991;BME280;6560;57.692;11.958;2022-10-13T04:37:40;101258.97;;;22.71;100.00
12991;BME280;6560;57.692;11.958;2022-10-13T04:40:05;101329.00;;;24.10;100.00
12991;BME280;6560;57.692;11.958;2022-10-13T04:42:31;101448.53;;;21.71;100.00
12991;BME280;6560;57.692;11.958;2022-10-13T04:44:56;101407.31;;;23.86;100.00
12991;BME280;6560;57.692;11.958;2022-10-13T04:47:22;101372.13;;;22.30;100.00
12991;BME280;6560;57.692;11.958;2022-10-13T04:49:47;101398.97;;;24.35;100.00
12991;BME280;6560;57.692;11.958;2022-10-13T04:52:13;101303.97;;;25.10;100.00
12991;BME280;6560;57.692;11.958;2022-10-13T04:54:38;101340.50;;;22.70;100.00
12991;BME280;6560;57.692;11.958;2022-10-13T04:57:04;101369.78;;;21.70;100.00
12991;BME280;6560;57.692;11.958;2022-10-13T04:59:29;101292.91;;;21.72;100.00
12991;BME280;6560;57.692;11.958;2022-10-13T05:01:55;101384.84;;;21.89;100.00
12991;BME280;6560;57.692;11.958;2022-10-13T05:04:20;101370.88;;;23.17;100.00
12991;BME280;6560;57.692;11.958;2022-10-13T05:06:46;101414.41;;;22.11;100.00
12991;BME280;6560;57.692;11.958;2022-10-13T05:09:14;101355.34;;;22.11;100.00
12991;BME280;6560;57.692;11.958;2022-10-13T05:11:41;101393.97;;;24.47;100.00
12991;BME280;6560;57.692;11.958;2022-10-13T05:14:06;101387.28;;;24.96;100.00
12991;BME280;6560;57.692;11.958;2022-10-13T05:16:32;101417.06;;;24.69;100.00
12991;BME280;6560;57.692;11.958;2022-10-13T05:18:58;101392.22;;;24.49;100.00
12991;BME280;6560;57.692;11.958;2022-10-13T05:21:25;101354.47;;;23.91;100.00
12991;BME280;6560;57.692;11.958;2022-10-13T05:23:52;101394.69;;;22.81;100.00
12991;BME280;6560;57.692;11.958;2022-10-13T05:26:26;101376.78;;;25.77;100.00
12991;BME280;6560;57.692;11.958;2022-10-13T05:29:00;101368.53;;;26.10;100.00
12991;BME280;6560;57.692;11.958;2022-10-13T05:31:28;101393.44;;;24.31;100.00
12991;BME280;6560;57.692;11.958;2022-10-13T05:33:54;101307.19;;;23.17;100.00
12991;BME280;6560;57.692;11.958;2022-10-13T05:36:26;101395.97;;;22.20;100.00
12991;BME280;6560;57.692;11.958;2022-10-13T05:38:55;101378.53;;;23.06;100.00
12991;BME280;6560;57.692;11.958;2022-10-13T05:41:22;101282.19;;;25.02;100.00
12991;BME280;6560;57.692;11.958;2022-10-13T05:43:50;101375.72;;;23.54;100.00
12991;BME280;6560;57.692;11.958;2022-10-13T05:46:15;101287.84;;;21.35;100.00
12991;BME280;6560;57.692;11.958;2022-10-13T05:48:41;101380.28;;;22.31;100.00
12991;BME280;6560;57.692;11.958;2022-10-13T05:51:13;101320.31;;;23.60;100.00
12991;BME280;6560;57.692;11.958;2022-10-13T05:53:44;101386.63;;;23.06;100.00
12991;BME280;6560;57.692;11.958;2022-10-13T05:56:17;101373.78;;;23.24;100.00
12991;BME280;6560;57.692;11.958;2022-10-13T06:01:24;101094.06;;;20.31;100.00
12991;BME280;6560;57.692;11.958;2022-10-13T06:04:02;101322.59;;;21.55;100.00
12991;BME280;6560;57.692;11.958;2022-10-13T06:06:28;101347.84;;;22.50;100.00
12991;BME280;6560;57.692;11.958;2022-10-13T06:08:58;101356.06;;;24.41;100.00
12991;BME280;6560;57.692;11.958;2022-10-13T06:11:27;101333.06;;;25.20;100.00
12991;BME280;6560;57.692;11.958;2022-10-13T06:13:52;101328.88;;;25.32;100.00
12991;BME280;6560;57.692;11.958;2022-10-13T06:16:21;101271.13;;;24.26;100.00
12991;BME280;6560;57.692;11.958;2022-10-13T06:21:22;101322.88;;;23.56;100.00
12991;BME280;6560;57.692;11.958;2022-10-13T06:23:47;101268.91;;;21.99;100.00
12991;BME280;6560;57.692;11.958;2022-10-13T06:26:13;101346.22;;;22.55;100.00
12991;BME280;6560;57.692;11.958;2022-10-13T06:28:38;101316.00;;;25.22;100.00
12991;BME280;6560;57.692;11.958;2022-10-13T06:31:05;101329.22;;;23.05;100.00
12991;BME280;6560;57.692;11.958;2022-10-13T06:33:31;101355.81;;;21.57;100.00
12991;BME280;6560;57.692;11.958;2022-10-13T06:36:00;101267.47;;;23.37;100.00
12991;BME280;6560;57.692;11.958;2022-10-13T06:38:26;101274.63;;;24.89;100.00
12991;BME280;6560;57.692;11.958;2022-10-13T06:40:52;101177.28;;;23.79;100.00
12991;BME280;6560;57.692;11.958;2022-10-13T06:43:17;101232.09;;;22.46;100.00
12991;BME280;6560;57.692;11.958;2022-10-13T06:45:43;101172.28;;;24.95;100.00
12991;BME280;6560;57.692;11.958;2022-10-13T06:48:08;101294.13;;;22.76;100.00
12991;BME280;6560;57.692;11.958;2022-10-13T06:50:34;101303.41;;;23.94;100.00
12991;BME280;6560;57.692;11.958;2022-10-13T06:52:59;101317.88;;;26.01;100.00
12991;BME280;6560;57.692;11.958;2022-10-13T06:55:25;101262.47;;;24.37;100.00
12991;BME280;6560;57.692;11.958;2022-10-13T06:57:50;101303.38;;;21.88;100.00
12991;BME280;6560;57.692;11.958;2022-10-13T07:00:16;101251.88;;;21.30;100.00
12991;BME280;6560;57.692;11.958;2022-10-13T07:02:42;101215.16;;;21.52;100.00
12991;BME280;6560;57.692;11.958;2022-10-13T07:05:07;101165.97;;;20.84;100.00
12991;BME280;6560;57.692;11.958;2022-10-13T07:07:33;101144.09;;;24.13;100.00
12991;BME280;6560;57.692;11.958;2022-10-13T07:09:58;101293.66;;;26.06;100.00
12991;BME280;6560;57.692;11.958;2022-10-13T07:12:24;101266.84;;;25.74;100.00
12991;BME280;6560;57.692;11.958;2022-10-13T07:14:49;101253.28;;;26.58;100.00
12991;BME280;6560;57.692;11.958;2022-10-13T07:17:15;101132.66;;;26.70;100.00
12991;BME280;6560;57.692;11.958;2022-10-13T07:19:40;101311.75;;;28.13;100.00
12991;BME280;6560;57.692;11.958;2022-10-13T07:22:06;101240.25;;;27.42;100.00
12991;BME280;6560;57.692;11.958;2022-10-13T07:24:31;101289.53;;;28.41;100.00
12991;BME280;6560;57.692;11.958;2022-10-13T07:26:57;101254.31;;;27.18;100.00
12991;BME280;6560;57.692;11.958;2022-10-13T07:29:22;101212.50;;;26.48;100.00
12991;BME280;6560;57.692;11.958;2022-10-13T07:31:48;101303.31;;;27.33;100.00
12991;BME280;6560;57.692;11.958;2022-10-13T07:34:14;101260.59;;;26.63;100.00
12991;BME280;6560;57.692;11.958;2022-10-13T07:36:40;101311.03;;;25.40;100.00
12991;BME280;6560;57.692;11.958;2022-10-13T07:39:07;101269.69;;;26.68;100.00
12991;BME280;6560;57.692;11.958;2022-10-13T07:41:33;101314.28;;;27.41;100.00
12991;BME280;6560;57.692;11.958;2022-10-13T07:44:01;101262.59;;;27.27;100.00
12991;BME280;6560;57.692;11.958;2022-10-13T07:46:27;101291.72;;;26.41;100.00
12991;BME280;6560;57.692;11.958;2022-10-13T07:48:52;101305.13;;;25.93;100.00
12991;BME280;6560;57.692;11.958;2022-10-13T07:51:19;101278.13;;;27.37;100.00
12991;BME280;6560;57.692;11.958;2022-10-13T07:53:44;101212.34;;;23.81;100.00
12991;BME280;6560;57.692;11.958;2022-10-13T07:56:12;101308.47;;;25.83;100.00
12991;BME280;6560;57.692;11.958;2022-10-13T07:58:40;101311.03;;;25.40;100.00
12991;BME280;6560;57.692;11.958;2022-10-13T08:01:07;101199.38;;;26.23;100.00
12991;BME280;6560;57.692;11.958;2022-10-13T08:03:32;101177.81;;;26.75;100.00
12991;BME280;6560;57.692;11.958;2022-10-13T08:05:59;101064.91;;;25.61;100.00
12991;BME280;6560;57.692;11.958;2022-10-13T08:08:25;101110.31;;;26.29;100.00
12991;BME280;6560;57.692;11.958;2022-10-13T08:10:51;101256.78;;;26.51;100.00
12991;BME280;6560;57.692;11.958;2022-10-13T08:13:16;101223.34;;;26.98;100.00
12991;BME280;6560;57.692;11.958;2022-10-13T08:15:43;101190.47;;;26.25;100.00
12991;BME280;6560;57.692;11.958;2022-10-13T08:18:10;101287.84;;;27.82;100.00
12991;BME280;6560;57.692;11.958;2022-10-13T08:20:40;101265.16;;;27.76;100.00
12991;BME280;6560;57.692;11.958;2022-10-13T08:23:06;101214.72;;;27.88;100.00
12991;BME280;6560;57.692;11.958;2022-10-13T08:25:39;101260.56;;;27.69;100.00
12991;BME280;6560;57.692;11.958;2022-10-13T08:28:06;101294.72;;;27.57;100.00
12991;BME280;6560;57.692;11.958;2022-10-13T08:30:39;101254.47;;;27.87;100.00
12991;BME280;6560;57.692;11.958;2022-10-13T08:33:05;101298.63;;;27.79;100.00
12991;BME280;6560;57.692;11.958;2022-10-13T08:35:30;101185.50;;;27.02;100.00
12991;BME280;6560;57.692;11.958;2022-10-13T08:37:56;101183.19;;;24.63;100.00
12991;BME280;6560;57.692;11.958;2022-10-13T08:40:21;101257.72;;;28.30;100.00
12991;BME280;6560;57.692;11.958;2022-10-13T08:42:47;101272.63;;;26.81;100.00
12991;BME280;6560;57.692;11.958;2022-10-13T08:45:20;101210.75;;;28.32;100.00
12991;BME280;6560;57.692;11.958;2022-10-13T08:47:58;101262.59;;;26.28;100.00
12991;BME280;6560;57.692;11.958;2022-10-13T08:50:29;101097.41;;;28.01;100.00
12991;BME280;6560;57.692;11.958;2022-10-13T08:52:58;101246.91;;;29.26;100.00
12991;BME280;6560;57.692;11.958;2022-10-13T08:55:38;101265.84;;;29.14;100.00
12991;BME280;6560;57.692;11.958;2022-10-13T08:58:13;101248.28;;;30.01;100.00
12991;BME280;6560;57.692;11.958;2022-10-13T09:00:41;101221.13;;;27.29;100.00
12991;BME280;6560;57.692;11.958;2022-10-13T09:06:12;101257.25;;;29.85;100.00
12991;BME280;6560;57.692;11.958;2022-10-13T09:08:51;101244.91;;;29.04;100.00
12991;BME280;6560;57.692;11.958;2022-10-13T09:11:18;101262.84;;;30.13;100.00
12991;BME280;6560;57.692;11.958;2022-10-13T09:13:44;101262.88;;;30.17;100.00
12991;BME280;6560;57.692;11.958;2022-10-13T09:16:10;101274.41;;;29.73;100.00
12991;BME280;6560;57.692;11.958;2022-10-13T09:18:35;101175.63;;;29.65;100.00
12991;BME280;6560;57.692;11.958;2022-10-13T09:21:13;101238.38;;;30.13;100.00
12991;BME280;6560;57.692;11.958;2022-10-13T09:23:40;101254.06;;;29.17;100.00
12991;BME280;6560;57.692;11.958;2022-10-13T09:26:08;101261.63;;;29.56;100.00
12991;BME280;6560;57.692;11.958;2022-10-13T09:28:34;101260.97;;;29.98;100.00
12991;BME280;6560;57.692;11.958;2022-10-13T09:31:14;101247.56;;;28.95;100.00
12991;BME280;6560;57.692;11.958;2022-10-13T09:33:40;101217.94;;;26.98;100.00
12991;BME280;6560;57.692;11.958;2022-10-13T09:36:10;101239.66;;;29.25;100.00
12991;BME280;6560;57.692;11.958;2022-10-13T09:38:36;101237.56;;;28.88;100.00
12991;BME280;6560;57.692;11.958;2022-10-13T09:43:56;101223.91;;;30.41;100.00
12991;BME280;6560;57.692;11.958;2022-10-13T09:49:24;101249.81;;;29.49;100.00
12991;BME280;6560;57.692;11.958;2022-10-13T09:51:51;101226.72;;;30.62;100.00
12991;BME280;6560;57.692;11.958;2022-10-13T09:54:26;101241.09;;;30.11;97.00
12991;BME280;6560;57.692;11.958;2022-10-13T09:56:58;101243.94;;;30.67;97.42
12991;BME280;6560;57.692;11.958;2022-10-13T09:59:35;101218.56;;;30.85;95.38
12991;BME280;6560;57.692;11.958;2022-10-13T10:03:18;101250.94;;;29.86;95.37
12991;BME280;6560;57.692;11.958;2022-10-13T10:05:24;101228.84;;;29.31;100.00
12991;BME280;6560;57.692;11.958;2022-10-13T10:07:50;101106.13;;;25.98;100.00
12991;BME280;6560;57.692;11.958;2022-10-13T10:10:34;101242.44;;;29.33;100.00
12991;BME280;6560;57.692;11.958;2022-10-13T10:13:01;101240.69;;;28.43;100.00
12991;BME280;6560;57.692;11.958;2022-10-13T10:18:13;101238.13;;;29.68;100.00
12991;BME280;6560;57.692;11.958;2022-10-13T10:21:01;101237.13;;;27.73;100.00
12991;BME280;6560;57.692;11.958;2022-10-13T10:23:46;101247.03;;;27.12;100.00
12991;BME280;6560;57.692;11.958;2022-10-13T10:26:28;101220.25;;;27.97;100.00
12991;BME280;6560;57.692;11.958;2022-10-13T10:31:43;101228.53;;;30.81;100.00
12991;BME280;6560;57.692;11.958;2022-10-13T10:36:52;101224.75;;;30.08;100.00
12991;BME280;6560;57.692;11.958;2022-10-13T10:39:28;101228.72;;;28.21;100.00
12991;BME280;6560;57.692;11.958;2022-10-13T10:42:04;101238.34;;;27.34;100.00
12991;BME280;6560;57.692;11.958;2022-10-13T10:44:36;101190.13;;;28.51;100.00
12991;BME280;6560;57.692;11.958;2022-10-13T10:47:08;101217.50;;;30.15;100.00
12991;BME280;6560;57.692;11.958;2022-10-13T10:49:36;101218.53;;;30.80;100.00
12991;BME280;6560;57.692;11.958;2022-10-13T10:52:24;101206.75;;;30.57;99.37
12991;BME280;6560;57.692;11.958;2022-10-13T10:54:58;101197.69;;;30.63;95.90
12991;BME280;6560;57.692;11.958;2022-10-13T10:57:46;101205.84;;;30.52;98.39
12991;BME280;6560;57.692;11.958;2022-10-13T11:00:18;101206.69;;;30.37;98.78
12991;BME280;6560;57.692;11.958;2022-10-13T11:03:46;101190.34;;;27.23;100.00
12991;BME280;6560;57.692;11.958;2022-10-13T11:08:29;101208.06;;;27.61;100.00
12991;BME280;6560;57.692;11.958;2022-10-13T11:13:56;101132.66;;;29.02;100.00
12991;BME280;6560;57.692;11.958;2022-10-13T11:17:06;101204.72;;;27.81;100.00
12991;BME280;6560;57.692;11.958;2022-10-13T11:19:36;101178.56;;;30.29;100.00
12991;BME280;6560;57.692;11.958;2022-10-13T11:27:18;101127.31;;;29.14;100.00
12991;BME280;6560;57.692;11.958;2022-10-13T11:29:53;101114.03;;;29.81;100.00
12991;BME280;6560;57.692;11.958;2022-10-13T11:40:27;101193.56;;;26.98;100.00
12991;BME280;6560;57.692;11.958;2022-10-13T11:45:37;101206.75;;;26.79;100.00
12991;BME280;6560;57.692;11.958;2022-10-13T11:56:42;101154.06;;;30.35;99.36
12991;BME280;6560;57.692;11.958;2022-10-13T12:02:10;101147.56;;;29.80;98.41
12991;BME280;6560;57.692;11.958;2022-10-13T12:04:38;101177.78;;;28.80;100.00
12991;BME280;6560;57.692;11.958;2022-10-13T12:07:12;101087.50;;;26.67;100.00
12991;BME280;6560;57.692;11.958;2022-10-13T12:09:53;101166.31;;;29.25;100.00
12991;BME280;6560;57.692;11.958;2022-10-13T12:12:21;101126.88;;;30.38;94.57
12991;BME280;6560;57.692;11.958;2022-10-13T12:14:53;101161.50;;;28.83;97.15
12991;BME280;6560;57.692;11.958;2022-10-13T12:19:55;101097.66;;;26.82;100.00
12991;BME280;6560;57.692;11.958;2022-10-13T12:22:21;100992.38;;;27.75;100.00
12991;BME280;6560;57.692;11.958;2022-10-13T12:25:03;101044.47;;;26.25;100.00
12991;BME280;6560;57.692;11.958;2022-10-13T12:27:30;101161.00;;;25.95;100.00
12991;BME280;6560;57.692;11.958;2022-10-13T12:29:58;101017.16;;;26.67;100.00
12991;BME280;6560;57.692;11.958;2022-10-13T12:32:29;101167.06;;;25.41;100.00
12991;BME280;6560;57.692;11.958;2022-10-13T12:35:09;101105.63;;;29.28;100.00
12991;BME280;6560;57.692;11.958;2022-10-13T12:37:35;101067.78;;;29.69;98.33
12991;BME280;6560;57.692;11.958;2022-10-13T12:40:12;101126.81;;;30.02;94.34
12991;BME280;6560;57.692;11.958;2022-10-13T12:42:40;101127.78;;;30.66;91.04
12991;BME280;6560;57.692;11.958;2022-10-13T12:45:06;101100.88;;;27.15;100.00
12991;BME280;6560;57.692;11.958;2022-10-13T12:53:12;101064.16;;;25.70;100.00
12991;BME280;6560;57.692;11.958;2022-10-13T12:55:51;101127.28;;;26.22;100.00
12991;BME280;6560;57.692;11.958;2022-10-13T12:58:23;101038.72;;;29.48;100.00
12991;BME280;6560;57.692;11.958;2022-10-13T13:03:33;101045.84;;;26.54;100.00
12991;BME280;6560;57.692;11.958;2022-10-13T13:06:24;101100.59;;;25.90;100.00
12991;BME280;6560;57.692;11.958;2022-10-13T13:09:19;101119.97;;;26.67;100.00
12991;BME280;6560;57.692;11.958;2022-10-13T13:11:46;101090.50;;;31.23;93.14
12991;BME280;6560;57.692;11.958;2022-10-13T13:17:13;101044.81;;;28.92;100.00
12991;BME280;6560;57.692;11.958;2022-10-13T13:19:49;101091.47;;;30.28;98.07
12991;BME280;6560;57.692;11.958;2022-10-13T13:22:15;100999.72;;;31.03;85.63
12991;BME280;6560;57.692;11.958;2022-10-13T13:24:41;101087.84;;;30.68;93.98
12991;BME280;6560;57.692;11.958;2022-10-13T13:29:51;101104.38;;;28.68;94.93
12991;BME280;6560;57.692;11.958;2022-10-13T13:32:18;101095.34;;;27.08;100.00
12991;BME280;6560;57.692;11.958;2022-10-13T13:34:44;101082.06;;;29.22;100.00
12991;BME280;6560;57.692;11.958;2022-10-13T13:39:48;101067.78;;;29.73;97.24
12991;BME280;6560;57.692;11.958;2022-10-13T13:42:14;101072.44;;;30.64;91.32
12991;BME280;6560;57.692;11.958;2022-10-13T13:44:40;101006.25;;;30.04;89.30
12991;BME280;6560;57.692;11.958;2022-10-13T13:47:26;101102.84;;;29.07;95.02
12991;BME280;6560;57.692;11.958;2022-10-13T13:49:54;101102.69;;;28.81;94.20
12991;BME280;6560;57.692;11.958;2022-10-13T13:52:20;101018.31;;;26.83;100.00
12991;BME280;6560;57.692;11.958;2022-10-13T13:54:47;101113.00;;;26.83;100.00
12991;BME280;6560;57.692;11.958;2022-10-13T13:57:13;101012.00;;;28.54;100.00
12991;BME280;6560;57.692;11.958;2022-10-13T13:59:39;101059.59;;;29.57;97.38
12991;BME280;6560;57.692;11.958;2022-10-13T14:02:09;101112.53;;;27.11;100.00
12991;BME280;6560;57.692;11.958;2022-10-13T14:04:36;101103.25;;;28.45;92.36
12991;BME280;6560;57.692;11.958;2022-10-13T14:07:01;101047.06;;;26.20;100.00
12991;BME280;6560;57.692;11.958;2022-10-13T14:09:27;101071.22;;;29.28;100.00
12991;BME280;6560;57.692;11.958;2022-10-13T14:11:52;101015.00;;;26.42;100.00
12991;BME280;6560;57.692;11.958;2022-10-13T14:14:18;101067.19;;;26.36;100.00
12991;BME280;6560;57.692;11.958;2022-10-13T14:16:43;101082.34;;;30.99;92.91
12991;BME280;6560;57.692;11.958;2022-10-13T14:19:09;101036.78;;;26.52;100.00
12991;BME280;6560;57.692;11.958;2022-10-13T14:21:35;101139.59;;;26.54;100.00
12991;BME280;6560;57.692;11.958;2022-10-13T14:24:01;100919.97;;;29.09;100.00
12991;BME280;6560;57.692;11.958;2022-10-13T14:26:26;100932.78;;;30.21;88.53
12991;BME280;6560;57.692;11.958;2022-10-13T14:28:52;101074.81;;;27.25;100.00
12991;BME280;6560;57.692;11.958;2022-10-13T14:31:17;101038.91;;;30.26;97.03